Time;durP1;ratioP1;P1;durP2;ratioP2;P2;SDS_P1;SDS_P2;PMS_P1;PMS_P2;Temp;Humidity;BMP_temperature;BMP_pressure;BME280_temperature;BME280_humidity;BME280_pressure;Samples;Min_cycle;Max_cycle;Signal;HPM_P1;HPM_P2
2023/06/14 00:00:58;;;;;;;;;;;;;;;;;;5000592;28;8551;-84
2023/06/14 00:03:24;;;;;;;;;;;;;;;;;;4998955;28;7161;-84
2023/06/14 00:05:50;;;;;;;;;;;;;;;;;;4999081;28;8827;-83
2023/06/14 00:08:15;;;;;;;;;;;;;;;;;;4998044;28;7124;-81
2023/06/14 00:10:41;;;;;;;;;;;;;;;;;;4999746;28;8552;-85
2023/06/14 00:13:08;;;;;;;;;;;;;;;;;;5001516;28;7539;-84
2023/06/14 00:15:34;;;;;;;;;;;;;;;;;;4998422;28;8598;-85
2023/06/14 00:18:03;;;;;;;;;;;;;;;;;;5003484;28;8154;-85
2023/06/14 00:20:30;;;;;;;;;;;;;;;;;;5000437;28;8463;-83
2023/06/14 00:22:56;;;;;;;;;;;;;;;;;;4998570;28;8981;-83
2023/06/14 00:25:25;;;;;;;;;;;;;;;;;;5006874;28;8551;-83
2023/06/14 00:27:51;;;;;;;;;;;;;;;;;;5009400;28;8834;-83
2023/06/14 00:30:17;;;;;;;;;;;;;;;;;;5009885;28;8729;-83
2023/06/14 00:32:43;;;;;;;;;;;;;;;;;;5009429;28;8489;-83
2023/06/14 00:35:09;;;;;;;;;;;;;;;;;;5009773;28;8535;-83
2023/06/14 00:37:35;;;;;;;;;;;;;;;;;;4993131;28;8514;-84
2023/06/14 00:40:00;;;;;;;;;;;;;;;;;;5009333;28;8583;-84
2023/06/14 00:42:27;;;;;;;;;;;;;;;;;;5009425;28;8495;-84
2023/06/14 00:44:53;;;;;;;;;;;;;;;;;;5009064;28;8570;-84
2023/06/14 00:47:20;;;;;;;;;;;;;;;;;;5009282;28;8830;-84
2023/06/14 00:49:47;;;;;;;;;;;;;;;;;;5009545;28;7288;-84
2023/06/14 00:52:16;;;;;;;;;;;;;;;;;;5009300;28;7351;-84
2023/06/14 00:54:42;;;;;;;;;;;;;;;;;;5009156;28;8898;-84
2023/06/14 00:57:10;;;;;;;;;;;;;;;;;;5009231;28;8483;-83
2023/06/14 00:59:43;;;;;;;;;;;;;;;;;;5009391;28;7282;-84
2023/06/14 01:02:09;;;;;;;;;;;;;;;;;;5009098;28;8500;-83
2023/06/14 01:04:35;;;;;;;;;;;;;;;;;;5009290;28;7154;-86
2023/06/14 01:07:13;;;;;;;;;;;;;;;;;;5009086;28;8608;-84
2023/06/14 01:09:51;;;;;;;;;;;;;;;;;;5009072;28;8850;-84
2023/06/14 01:12:24;;;;;;;;;;;;;;;;;;5008944;28;8780;-85
2023/06/14 01:14:52;;;;;;;;;;;;;;;;;;5010597;28;7226;-84
2023/06/14 01:17:18;;;;;;;;;;;;;;;;;;5013395;28;7139;-84
2023/06/14 01:19:45;;;;;;;;;;;;;;;;;;5013099;28;8508;-84
2023/06/14 01:22:11;;;;;;;;;;;;;;;;;;5013378;28;9325;-86
2023/06/14 01:24:39;;;;;;;;;;;;;;;;;;5013213;28;8471;-86
2023/06/14 01:27:06;;;;;;;;;;;;;;;;;;5012944;28;8596;-86
2023/06/14 01:29:36;;;;;;;;;;;;;;;;;;5012713;28;9080;-86
2023/06/14 01:32:01;;;;;;;;;;;;;;;;;;5012914;28;8559;-84
2023/06/14 01:34:27;;;;;;;;;;;;;;;;;;5012171;28;8539;-85
2023/06/14 01:36:57;;;;;;;;;;;;;;;;;;5013304;28;8534;-84
2023/06/14 01:39:24;;;;;;;;;;;;;;;;;;5013529;28;8624;-84
2023/06/14 01:41:52;;;;;;;;;;;;;;;;;;5013689;28;9003;-84
2023/06/14 01:44:18;;;;;;;;;;;;;;;;;;5013010;28;8509;-84
2023/06/14 01:46:45;;;;;;;;;;;;;;;;;;5013498;28;8464;-85
2023/06/14 01:49:10;;;;;;;;;;;;;;;;;;5013207;28;8506;-85
2023/06/14 01:51:36;;;;;;;;;;;;;;;;;;5013228;28;8557;-84
2023/06/14 01:54:02;;;;;;;;;;;;;;;;;;5013291;28;8844;-84
2023/06/14 01:56:27;;;;;;;;;;;;;;;;;;5013391;28;8777;-84
2023/06/14 01:58:53;;;;;;;;;;;;;;;;;;5013033;28;8687;-84
2023/06/14 02:01:21;;;;;;;;;;;;;;;;;;5013044;28;7242;-83
2023/06/14 02:03:48;;;;;;;;;;;;;;;;;;4996496;28;8991;-84
2023/06/14 02:06:15;;;;;;;;;;;;;;;;;;4996662;28;8500;-84
2023/06/14 02:08:41;;;;;;;;;;;;;;;;;;4996605;28;8703;-84
2023/06/14 02:11:07;;;;;;;;;;;;;;;;;;4996692;28;7126;-84
2023/06/14 02:13:32;;;;;;;;;;;;;;;;;;4996376;28;8808;-84
2023/06/14 02:15:59;;;;;;;;;;;;;;;;;;4996532;28;7110;-84
2023/06/14 02:18:25;;;;;;;;;;;;;;;;;;4996025;28;8807;-84
2023/06/14 02:20:50;;;;;;;;;;;;;;;;;;4996886;28;8649;-85
2023/06/14 02:23:16;;;;;;;;;;;;;;;;;;4996093;28;9182;-86
2023/06/14 02:25:42;;;;;;;;;;;;;;;;;;4995598;28;9769;-85
2023/06/14 02:28:08;;;;;;;;;;;;;;;;;;4996160;28;8932;-86
2023/06/14 02:30:34;;;;;;;;;;;;;;;;;;4996403;28;8524;-87
2023/06/14 02:33:00;;;;;;;;;;;;;;;;;;4996163;28;8421;-85
2023/06/14 02:35:26;;;;;;;;;;;;;;;;;;4996085;28;9996;-86
2023/06/14 02:37:53;;;;;;;;;;;;;;;;;;4996379;28;7252;-89
2023/06/14 02:40:19;;;;;;;;;;;;;;;;;;4995982;28;8912;-86
2023/06/14 02:42:45;;;;;;;;;;;;;;;;;;4996226;28;8592;-86
2023/06/14 02:45:10;;;;;;;;;;;;;;;;;;4995936;28;8506;-87
2023/06/14 02:47:36;;;;;;;;;;;;;;;;;;4995577;28;7346;-86
2023/06/14 02:50:02;;;;;;;;;;;;;;;;;;4995877;28;8461;-86
2023/06/14 02:52:28;;;;;;;;;;;;;;;;;;5011767;28;7123;-86
2023/06/14 02:54:54;;;;;;;;;;;;;;;;;;5012168;28;8828;-86
2023/06/14 02:57:20;;;;;;;;;;;;;;;;;;5012031;28;8584;-84
2023/06/14 02:59:46;;;;;;;;;;;;;;;;;;5011876;28;8867;-86
2023/06/14 03:02:11;;;;;;;;;;;;;;;;;;5011990;28;8513;-84
2023/06/14 03:04:37;;;;;;;;;;;;;;;;;;5011854;28;7467;-85
2023/06/14 03:07:08;;;;;;;;;;;;;;;;;;5011749;28;8464;-86
2023/06/14 03:09:38;;;;;;;;;;;;;;;;;;5011028;28;8942;-84
2023/06/14 03:12:04;;;;;;;;;;;;;;;;;;5011016;28;8881;-85
2023/06/14 03:14:31;;;;;;;;;;;;;;;;;;4994809;28;7112;-85
2023/06/14 03:16:57;;;;;;;;;;;;;;;;;;5010975;28;8572;-85
2023/06/14 03:19:23;;;;;;;;;;;;;;;;;;5011160;28;8784;-84
2023/06/14 03:21:49;;;;;;;;;;;;;;;;;;5010549;28;7430;-85
2023/06/14 03:24:17;;;;;;;;;;;;;;;;;;5010920;28;8565;-84
2023/06/14 03:26:43;;;;;;;;;;;;;;;;;;5010598;28;8567;-84
2023/06/14 03:29:08;;;;;;;;;;;;;;;;;;5010630;28;8737;-85
2023/06/14 03:31:35;;;;;;;;;;;;;;;;;;5010559;28;8468;-85
2023/06/14 03:34:01;;;;;;;;;;;;;;;;;;5010825;28;8886;-85
2023/06/14 03:36:27;;;;;;;;;;;;;;;;;;5010625;28;8600;-85
2023/06/14 03:38:54;;;;;;;;;;;;;;;;;;5010353;28;9211;-85
2023/06/14 03:41:20;;;;;;;;;;;;;;;;;;5010473;28;9165;-84
2023/06/14 03:43:45;;;;;;;;;;;;;;;;;;5010319;28;8828;-83
2023/06/14 03:46:11;;;;;;;;;;;;;;;;;;5010303;28;8474;-85
2023/06/14 03:48:36;;;;;;;;;;;;;;;;;;5010245;28;8536;-84
2023/06/14 03:51:02;;;;;;;;;;;;;;;;;;5010330;28;9012;-86
2023/06/14 03:53:29;;;;;;;;;;;;;;;;;;5010089;28;8672;-86
2023/06/14 03:55:55;;;;;;;;;;;;;;;;;;5010115;28;7243;-86
2023/06/14 03:58:20;;;;;;;;;;;;;;;;;;5010101;28;8583;-83
2023/06/14 04:00:46;;;;;;;;;;;;;;;;;;5010192;28;7097;-85
2023/06/14 04:03:19;;;;;;;;;;;;;;;;;;5010078;28;8381;-85
2023/06/14 04:05:49;;;;;;;;;;;;;;;;;;4993860;28;8905;-85
2023/06/14 04:08:15;;;;;;;;;;;;;;;;;;5009748;28;8854;-85
2023/06/14 04:10:40;;;;;;;;;;;;;;;;;;5009915;28;8873;-85
2023/06/14 04:13:07;;;;;;;;;;;;;;;;;;5009935;28;8752;-84
2023/06/14 04:15:33;;;;;;;;;;;;;;;;;;5009609;28;8609;-84
2023/06/14 04:17:59;;;;;;;;;;;;;;;;;;5006032;28;8840;-84
2023/06/14 04:20:25;;;;;;;;;;;;;;;;;;4999296;28;9675;-84
2023/06/14 04:22:52;;;;;;;;;;;;;;;;;;4998845;28;8569;-84
2023/06/14 04:25:18;;;;;;;;;;;;;;;;;;5000875;28;7266;-83
2023/06/14 04:27:43;;;;;;;;;;;;;;;;;;4999638;28;8519;-84
2023/06/14 04:30:10;;;;;;;;;;;;;;;;;;4999539;28;8488;-85
2023/06/14 04:32:38;;;;;;;;;;;;;;;;;;4998088;28;8906;-84
2023/06/14 04:35:06;;;;;;;;;;;;;;;;;;4998885;28;8921;-83
2023/06/14 04:37:31;;;;;;;;;;;;;;;;;;5000986;28;8522;-83
2023/06/14 04:39:57;;;;;;;;;;;;;;;;;;4998389;28;8505;-85
2023/06/14 04:42:25;;;;;;;;;;;;;;;;;;4999560;28;8886;-85
2023/06/14 04:44:55;;;;;;;;;;;;;;;;;;4999445;28;8998;-85
2023/06/14 04:47:21;;;;;;;;;;;;;;;;;;4998736;28;8603;-84
2023/06/14 04:49:47;;;;;;;;;;;;;;;;;;4998288;28;8581;-84
2023/06/14 04:52:13;;;;;;;;;;;;;;;;;;4999885;28;8504;-83
2023/06/14 04:54:41;;;;;;;;;;;;;;;;;;5000709;28;7289;-84
2023/06/14 04:57:08;;;;;;;;;;;;;;;;;;4998750;28;7141;-84
2023/06/14 04:59:35;;;;;;;;;;;;;;;;;;4999827;28;8587;-85
2023/06/14 05:02:01;;;;;;;;;;;;;;;;;;4997953;28;7282;-84
2023/06/14 05:04:27;;;;;;;;;;;;;;;;;;4998706;28;8882;-84
2023/06/14 05:06:54;;;;;;;;;;;;;;;;;;4983720;28;7382;-84
2023/06/14 05:09:20;;;;;;;;;;;;;;;;;;4996490;28;8912;-84
2023/06/14 05:11:47;;;;;;;;;;;;;;;;;;4995937;28;8501;-86
2023/06/14 05:14:14;;;;;;;;;;;;;;;;;;4996922;28;7156;-85
2023/06/14 05:16:40;;;;;;;;;;;;;;;;;;4988420;28;7288;-85
2023/06/14 05:19:06;;;;;;;;;;;;;;;;;;4972545;28;7280;-86
2023/06/14 05:21:34;;;;;;;;;;;;;;;;;;4972954;28;7698;-83
2023/06/14 05:24:00;;;;;;;;;;;;;;;;;;4973511;28;8792;-83
2023/06/14 05:26:28;;;;;;;;;;;;;;;;;;4974697;28;7458;-87
2023/06/14 05:28:56;;;;;;;;;;;;;;;;;;4972525;28;7154;-85
2023/06/14 05:31:22;;;;;;;;;;;;;;;;;;4972679;28;7328;-86
2023/06/14 05:33:48;;;;;;;;;;;;;;;;;;4972628;28;8473;-83
2023/06/14 05:36:13;;;;;;;;;;;;;;;;;;4972670;28;9515;-83
2023/06/14 05:38:39;;;;;;;;;;;;;;;;;;4972604;28;7409;-84
2023/06/14 05:41:04;;;;;;;;;;;;;;;;;;4972654;28;7135;-83
2023/06/14 05:43:31;;;;;;;;;;;;;;;;;;4972865;28;8695;-83
2023/06/14 05:45:57;;;;;;;;;;;;;;;;;;4972629;28;7407;-87
2023/06/14 05:48:22;;;;;;;;;;;;;;;;;;4972830;28;8428;-83
2023/06/14 05:50:56;;;;;;;;;;;;;;;;;;4973046;28;8576;-82
2023/06/14 05:53:21;;;;;;;;;;;;;;;;;;4972490;28;8801;-82
2023/06/14 05:55:46;;;;;;;;;;;;;;;;;;4972991;28;7245;-82
2023/06/14 05:58:13;;;;;;;;;;;;;;;;;;4972930;28;8563;-81
2023/06/14 06:00:39;;;;;;;;;;;;;;;;;;4974195;28;8927;-81
2023/06/14 06:03:04;;;;;;;;;;;;;;;;;;4976225;28;7098;-82
2023/06/14 06:05:30;;;;;;;;;;;;;;;;;;4976453;28;8598;-81
2023/06/14 06:07:55;;;;;;;;;;;;;;;;;;4976236;28;8498;-81
2023/06/14 06:10:21;;;;;;;;;;;;;;;;;;4976025;28;8637;-82
2023/06/14 06:12:48;;;;;;;;;;;;;;;;;;4976254;28;8635;-82
2023/06/14 06:15:14;;;;;;;;;;;;;;;;;;4976144;28;8902;-83
2023/06/14 06:17:40;;;;;;;;;;;;;;;;;;4976490;28;8591;-87
2023/06/14 06:20:08;;;;;;;;;;;;;;;;;;4978793;28;8582;-87
2023/06/14 06:22:34;;;;;;;;;;;;;;;;;;4985740;28;8923;-87
2023/06/14 06:24:59;;;;;;;;;;;;;;;;;;4993841;28;8614;-81
2023/06/14 06:27:25;;;;;;;;;;;;;;;;;;4981291;28;8540;-82
2023/06/14 06:29:51;;;;;;;;;;;;;;;;;;4984346;28;7265;-81
2023/06/14 06:32:17;;;;;;;;;;;;;;;;;;4975977;28;8887;-82
2023/06/14 06:34:43;;;;;;;;;;;;;;;;;;4982401;28;8534;-81
2023/06/14 06:37:09;;;;;;;;;;;;;;;;;;5011635;28;8887;-81
2023/06/14 06:39:35;;;;;;;;;;;;;;;;;;5011564;28;9759;-81
2023/06/14 06:42:00;;;;;;;;;;;;;;;;;;5011368;28;8457;-81
2023/06/14 06:44:26;;;;;;;;;;;;;;;;;;5009292;28;8875;-83
2023/06/14 06:46:51;;;;;;;;;;;;;;;;;;4996606;28;7193;-83
2023/06/14 06:49:17;;;;;;;;;;;;;;;;;;5000288;28;7265;-82
2023/06/14 06:51:44;;;;;;;;;;;;;;;;;;5000860;28;8538;-81
2023/06/14 06:54:10;;;;;;;;;;;;;;;;;;4997189;28;8537;-83
2023/06/14 06:56:36;;;;;;;;;;;;;;;;;;4975346;28;8898;-82
2023/06/14 06:59:02;;;;;;;;;;;;;;;;;;4974587;28;8721;-82
2023/06/14 07:01:28;;;;;;;;;;;;;;;;;;4974760;28;7351;-81
2023/06/14 07:03:55;;;;;;;;;;;;;;;;;;4975351;28;8574;-82
2023/06/14 07:06:21;;;;;;;;;;;;;;;;;;4975210;28;8517;-82
2023/06/14 07:08:48;;;;;;;;;;;;;;;;;;4975177;28;8760;-83
2023/06/14 07:11:14;;;;;;;;;;;;;;;;;;4975086;28;8897;-83
2023/06/14 07:13:40;;;;;;;;;;;;;;;;;;4975036;28;8624;-81
2023/06/14 07:16:05;;;;;;;;;;;;;;;;;;5010940;28;8497;-83
2023/06/14 07:18:31;;;;;;;;;;;;;;;;;;5011200;28;8743;-83
2023/06/14 07:20:57;;;;;;;;;;;;;;;;;;5010713;28;7250;-82
2023/06/14 07:23:23;;;;;;;;;;;;;;;;;;5009557;28;8513;-82
2023/06/14 07:25:48;;;;;;;;;;;;;;;;;;4986762;28;8509;-82
2023/06/14 07:28:14;;;;;;;;;;;;;;;;;;4994301;28;8614;-81
2023/06/14 07:30:40;;;;;;;;;;;;;;;;;;4989783;28;8984;-82
2023/06/14 07:33:05;;;;;;;;;;;;;;;;;;4985133;28;8516;-82
2023/06/14 07:35:31;;;;;;;;;;;;;;;;;;5007063;28;8558;-82
2023/06/14 07:37:57;;;;;;;;;;;;;;;;;;4979021;28;8486;-81
2023/06/14 07:40:22;;;;;;;;;;;;;;;;;;4993832;28;6950;-83
2023/06/14 07:42:49;;;;;;;;;;;;;;;;;;4978919;28;7310;-82
2023/06/14 07:45:15;;;;;;;;;;;;;;;;;;4985813;28;7361;-82
2023/06/14 07:47:40;;;;;;;;;;;;;;;;;;4974160;28;8529;-82
2023/06/14 07:50:06;;;;;;;;;;;;;;;;;;4975087;28;8839;-81
2023/06/14 07:52:31;;;;;;;;;;;;;;;;;;4975815;28;8768;-82
2023/06/14 07:54:57;;;;;;;;;;;;;;;;;;5003016;28;8821;-82
2023/06/14 07:57:22;;;;;;;;;;;;;;;;;;4993280;28;9759;-82
2023/06/14 07:59:47;;;;;;;;;;;;;;;;;;5003258;28;7446;-84
2023/06/14 08:02:13;;;;;;;;;;;;;;;;;;4996858;28;6944;-81
2023/06/14 08:04:38;;;;;;;;;;;;;;;;;;5001409;28;8620;-81
2023/06/14 08:07:04;;;;;;;;;;;;;;;;;;4985579;28;8494;-81
2023/06/14 08:09:30;;;;;;;;;;;;;;;;;;4995590;28;8989;-81
2023/06/14 08:11:56;;;;;;;;;;;;;;;;;;4989122;28;9040;-81
2023/06/14 08:14:22;;;;;;;;;;;;;;;;;;5009305;28;8562;-81
2023/06/14 08:16:48;;;;;;;;;;;;;;;;;;5009183;28;7361;-80
2023/06/14 08:19:13;;;;;;;;;;;;;;;;;;5007260;28;8544;-81
2023/06/14 08:21:39;;;;;;;;;;;;;;;;;;4994449;28;9050;-81
2023/06/14 08:24:05;;;;;;;;;;;;;;;;;;4979696;28;7410;-80
2023/06/14 08:26:31;;;;;;;;;;;;;;;;;;4988893;28;7041;-81
2023/06/14 08:28:57;;;;;;;;;;;;;;;;;;4977397;28;8526;-81
2023/06/14 08:31:25;;;;;;;;;;;;;;;;;;4998366;28;8562;-81
2023/06/14 08:33:50;;;;;;;;;;;;;;;;;;5008569;28;9100;-82
2023/06/14 08:36:16;;;;;;;;;;;;;;;;;;5009343;28;8675;-81
2023/06/14 08:38:41;;;;;;;;;;;;;;;;;;5009204;28;8561;-86
2023/06/14 08:41:08;;;;;;;;;;;;;;;;;;5007881;28;8673;-80
2023/06/14 08:43:34;;;;;;;;;;;;;;;;;;5008337;28;8718;-81
2023/06/14 08:46:04;;;;;;;;;;;;;;;;;;5008795;28;8822;-81
2023/06/14 08:48:33;;;;;;;;;;;;;;;;;;5009087;28;8499;-80
2023/06/14 08:51:03;;;;;;;;;;;;;;;;;;5008965;28;8624;-82
2023/06/14 08:53:33;;;;;;;;;;;;;;;;;;5008650;28;7367;-82
2023/06/14 08:56:04;;;;;;;;;;;;;;;;;;5008872;28;8828;-82
2023/06/14 08:58:31;;;;;;;;;;;;;;;;;;5008789;28;8672;-82
2023/06/14 09:00:59;;;;;;;;;;;;;;;;;;5008858;28;8484;-82
2023/06/14 09:03:29;;;;;;;;;;;;;;;;;;5008877;28;8912;-82
2023/06/14 09:06:01;;;;;;;;;;;;;;;;;;5009295;28;8890;-81
2023/06/14 09:08:30;;;;;;;;;;;;;;;;;;5008843;28;8927;-82
2023/06/14 09:10:57;;;;;;;;;;;;;;;;;;5008771;28;8623;-83
2023/06/14 09:13:23;;;;;;;;;;;;;;;;;;5005468;28;8834;-81
2023/06/14 09:15:49;;;;;;;;;;;;;;;;;;4989272;28;9158;-81
2023/06/14 09:18:15;;;;;;;;;;;;;;;;;;5008917;28;8526;-81
2023/06/14 09:20:41;;;;;;;;;;;;;;;;;;5004820;28;8675;-81
2023/06/14 09:23:07;;;;;;;;;;;;;;;;;;5000269;28;8549;-81
2023/06/14 09:25:41;;;;;;;;;;;;;;;;;;5001170;28;7350;-81
2023/06/14 09:28:08;;;;;;;;;;;;;;;;;;4972829;28;7277;-81
2023/06/14 09:30:33;;;;;;;;;;;;;;;;;;4972446;28;7265;-80
2023/06/14 09:32:59;;;;;;;;;;;;;;;;;;4975272;28;8697;-82
2023/06/14 09:35:25;;;;;;;;;;;;;;;;;;5008954;28;9112;-80
2023/06/14 09:37:50;;;;;;;;;;;;;;;;;;5001446;28;7249;-81
2023/06/14 09:40:20;;;;;;;;;;;;;;;;;;4988730;28;8559;-81
2023/06/14 09:42:46;;;;;;;;;;;;;;;;;;4991809;28;8550;-80
2023/06/14 09:45:13;;;;;;;;;;;;;;;;;;5007784;28;8652;-80
2023/06/14 09:47:39;;;;;;;;;;;;;;;;;;4984411;28;7248;-81
2023/06/14 09:50:06;;;;;;;;;;;;;;;;;;5002116;28;8903;-81
2023/06/14 09:52:32;;;;;;;;;;;;;;;;;;5010249;28;8649;-81
2023/06/14 09:54:59;;;;;;;;;;;;;;;;;;4990410;28;8515;-81
2023/06/14 09:57:26;;;;;;;;;;;;;;;;;;4988410;28;8571;-81
2023/06/14 10:00:00;;;;;;;;;;;;;;;;;;4996912;28;7183;-80
2023/06/14 10:02:28;;;;;;;;;;;;;;;;;;5010684;28;9341;-80
2023/06/14 10:05:06;;;;;;;;;;;;;;;;;;4992719;28;8849;-80
2023/06/14 10:07:38;;;;;;;;;;;;;;;;;;5008302;28;9504;-80
2023/06/14 10:10:04;;;;;;;;;;;;;;;;;;4976795;28;8558;-80
2023/06/14 10:12:31;;;;;;;;;;;;;;;;;;4989965;28;6944;-80
2023/06/14 10:14:58;;;;;;;;;;;;;;;;;;5009275;28;9488;-80
2023/06/14 10:17:23;;;;;;;;;;;;;;;;;;5012092;28;8593;-81
2023/06/14 10:19:53;;;;;;;;;;;;;;;;;;4996089;28;8847;-80
2023/06/14 10:22:30;;;;;;;;;;;;;;;;;;5012201;28;8918;-81
2023/06/14 10:24:56;;;;;;;;;;;;;;;;;;4992891;28;8620;-81
2023/06/14 10:27:24;;;;;;;;;;;;;;;;;;5012393;28;8615;-81
2023/06/14 10:29:53;;;;;;;;;;;;;;;;;;5012350;28;9233;-81
2023/06/14 10:32:19;;;;;;;;;;;;;;;;;;5012385;28;9015;-81
2023/06/14 10:34:45;;;;;;;;;;;;;;;;;;5008766;28;7421;-81
2023/06/14 10:37:12;;;;;;;;;;;;;;;;;;5012631;28;8599;-81
2023/06/14 10:39:40;;;;;;;;;;;;;;;;;;5012281;28;8587;-82
2023/06/14 10:42:07;;;;;;;;;;;;;;;;;;5005995;28;9335;-81
2023/06/14 10:44:37;;;;;;;;;;;;;;;;;;5011495;28;7464;-81
2023/06/14 10:47:06;;;;;;;;;;;;;;;;;;5011110;28;8825;-80
2023/06/14 10:49:42;;;;;;;;;;;;;;;;;;5005757;28;8548;-81
2023/06/14 10:52:18;;;;;;;;;;;;;;;;;;5011727;28;8470;-80
2023/06/14 10:54:56;;;;;;;;;;;;;;;;;;5011842;28;8595;-84
2023/06/14 10:57:21;;;;;;;;;;;;;;;;;;5011823;28;8981;-81
2023/06/14 10:59:47;;;;;;;;;;;;;;;;;;5008914;28;7247;-81
2023/06/14 11:02:21;;;;;;;;;;;;;;;;;;4982862;28;9422;-81
2023/06/14 11:04:52;;;;;;;;;;;;;;;;;;5009167;28;8768;-81
2023/06/14 11:07:18;;;;;;;;;;;;;;;;;;5010135;28;8613;-80
2023/06/14 11:10:02;;;;;;;;;;;;;;;;;;5011111;28;8532;-80
2023/06/14 11:12:28;;;;;;;;;;;;;;;;;;4975040;28;8571;-81
2023/06/14 11:14:53;;;;;;;;;;;;;;;;;;5005242;28;9420;-81
2023/06/14 11:17:20;;;;;;;;;;;;;;;;;;5010915;28;8710;-81
2023/06/14 11:19:45;;;;;;;;;;;;;;;;;;5010706;28;7167;-81
2023/06/14 11:22:12;;;;;;;;;;;;;;;;;;5010975;28;8516;-81
2023/06/14 11:24:37;;;;;;;;;;;;;;;;;;5010338;28;8543;-81
2023/06/14 11:27:02;;;;;;;;;;;;;;;;;;5009341;28;7139;-81
2023/06/14 11:29:29;;;;;;;;;;;;;;;;;;5009749;28;7227;-80
2023/06/14 11:31:54;;;;;;;;;;;;;;;;;;5009480;28;8517;-80
2023/06/14 11:34:20;;;;;;;;;;;;;;;;;;5009515;28;8582;-81
2023/06/14 11:36:47;;;;;;;;;;;;;;;;;;5009421;28;8533;-80
2023/06/14 11:39:13;;;;;;;;;;;;;;;;;;5009896;28;7278;-82
2023/06/14 11:41:40;;;;;;;;;;;;;;;;;;5010400;28;9028;-82
2023/06/14 11:44:07;;;;;;;;;;;;;;;;;;4998890;28;8486;-81
2023/06/14 11:46:33;;;;;;;;;;;;;;;;;;4996206;28;8658;-81
2023/06/14 11:49:02;;;;;;;;;;;;;;;;;;4993284;28;8737;-81
2023/06/14 11:51:29;;;;;;;;;;;;;;;;;;4984770;28;9486;-80
2023/06/14 11:53:55;;;;;;;;;;;;;;;;;;5004741;28;8541;-80
2023/06/14 11:56:21;;;;;;;;;;;;;;;;;;4990568;28;8723;-81
2023/06/14 11:58:47;;;;;;;;;;;;;;;;;;5003791;28;8556;-80
2023/06/14 12:01:19;;;;;;;;;;;;;;;;;;5005375;28;7257;-80
2023/06/14 12:03:53;;;;;;;;;;;;;;;;;;4993562;28;7160;-80
2023/06/14 12:06:28;;;;;;;;;;;;;;;;;;4993585;28;8503;-80
2023/06/14 12:08:55;;;;;;;;;;;;;;;;;;4993559;28;8556;-81
2023/06/14 12:11:21;;;;;;;;;;;;;;;;;;4993645;28;8530;-82
2023/06/14 12:13:48;;;;;;;;;;;;;;;;;;4989888;28;8493;-80
2023/06/14 12:16:14;;;;;;;;;;;;;;;;;;4997839;28;8636;-81
2023/06/14 12:18:40;;;;;;;;;;;;;;;;;;5010081;28;9059;-81
2023/06/14 12:21:07;;;;;;;;;;;;;;;;;;5009565;28;8934;-81
2023/06/14 12:23:43;;;;;;;;;;;;;;;;;;5009499;28;8551;-81
2023/06/14 12:26:08;;;;;;;;;;;;;;;;;;5009523;28;8532;-81
2023/06/14 12:28:34;;;;;;;;;;;;;;;;;;5009446;28;8529;-81
2023/06/14 12:30:59;;;;;;;;;;;;;;;;;;5000315;28;8503;-82
2023/06/14 12:33:25;;;;;;;;;;;;;;;;;;4993782;28;7376;-81
2023/06/14 12:35:51;;;;;;;;;;;;;;;;;;4986008;28;8698;-81
2023/06/14 12:38:16;;;;;;;;;;;;;;;;;;4998286;28;8790;-82
2023/06/14 12:40:42;;;;;;;;;;;;;;;;;;4992511;28;8708;-82
2023/06/14 12:43:08;;;;;;;;;;;;;;;;;;4974550;28;8561;-82
2023/06/14 12:45:33;;;;;;;;;;;;;;;;;;5000367;28;8409;-81
2023/06/14 12:47:59;;;;;;;;;;;;;;;;;;5008580;28;8592;-81
2023/06/14 12:50:25;;;;;;;;;;;;;;;;;;5008510;28;8518;-82
2023/06/14 12:52:51;;;;;;;;;;;;;;;;;;5009073;28;9260;-80
2023/06/14 12:55:18;;;;;;;;;;;;;;;;;;5009034;28;8528;-81
2023/06/14 12:57:44;;;;;;;;;;;;;;;;;;5008791;28;8837;-80
2023/06/14 13:00:10;;;;;;;;;;;;;;;;;;5009149;28;8504;-80
2023/06/14 13:02:35;;;;;;;;;;;;;;;;;;5008635;28;9609;-80
2023/06/14 13:05:03;;;;;;;;;;;;;;;;;;5008849;28;8789;-80
2023/06/14 13:07:29;;;;;;;;;;;;;;;;;;5009470;28;8980;-80
2023/06/14 13:09:54;;;;;;;;;;;;;;;;;;5008416;28;8532;-80
2023/06/14 13:12:20;;;;;;;;;;;;;;;;;;5008869;28;7178;-80
2023/06/14 13:14:46;;;;;;;;;;;;;;;;;;5008861;28;8801;-80
2023/06/14 13:17:11;;;;;;;;;;;;;;;;;;5008595;28;8509;-80
2023/06/14 13:19:37;;;;;;;;;;;;;;;;;;5008808;28;8514;-80
2023/06/14 13:22:03;;;;;;;;;;;;;;;;;;5008851;28;8631;-80
2023/06/14 13:24:29;;;;;;;;;;;;;;;;;;5008555;28;8534;-80
2023/06/14 13:26:56;;;;;;;;;;;;;;;;;;5009038;28;8650;-80
2023/06/14 13:29:22;;;;;;;;;;;;;;;;;;5008673;28;9766;-80
2023/06/14 13:31:48;;;;;;;;;;;;;;;;;;5008848;28;9086;-80
2023/06/14 13:34:13;;;;;;;;;;;;;;;;;;5005572;28;8791;-84
2023/06/14 13:36:39;;;;;;;;;;;;;;;;;;4995415;28;7304;-80
2023/06/14 13:39:04;;;;;;;;;;;;;;;;;;4995721;28;8566;-81
2023/06/14 13:41:32;;;;;;;;;;;;;;;;;;4992195;28;8891;-80
2023/06/14 13:43:58;;;;;;;;;;;;;;;;;;5007940;28;8999;-80
2023/06/14 13:46:24;;;;;;;;;;;;;;;;;;5008169;28;8985;-80
2023/06/14 13:48:50;;;;;;;;;;;;;;;;;;5007807;28;7165;-80
2023/06/14 13:51:18;;;;;;;;;;;;;;;;;;5008162;28;9426;-80
2023/06/14 13:53:49;;;;;;;;;;;;;;;;;;4991903;28;9322;-80
2023/06/14 13:56:15;;;;;;;;;;;;;;;;;;5008418;28;7278;-80
2023/06/14 13:58:41;;;;;;;;;;;;;;;;;;5007594;28;8628;-80
2023/06/14 14:01:08;;;;;;;;;;;;;;;;;;5008438;28;7270;-80
2023/06/14 14:03:33;;;;;;;;;;;;;;;;;;5008185;28;9076;-80
2023/06/14 14:06:00;;;;;;;;;;;;;;;;;;5008005;28;7266;-80
2023/06/14 14:08:26;;;;;;;;;;;;;;;;;;5008187;28;8762;-80
2023/06/14 14:10:51;;;;;;;;;;;;;;;;;;5007923;28;7157;-80
2023/06/14 14:13:17;;;;;;;;;;;;;;;;;;5007113;28;7272;-81
2023/06/14 14:15:43;;;;;;;;;;;;;;;;;;4996525;28;8565;-84
2023/06/14 14:18:09;;;;;;;;;;;;;;;;;;4995932;28;8514;-80
2023/06/14 14:20:35;;;;;;;;;;;;;;;;;;5004903;28;7336;-80
2023/06/14 14:23:01;;;;;;;;;;;;;;;;;;4986410;28;8506;-80
2023/06/14 14:25:28;;;;;;;;;;;;;;;;;;4993622;28;9235;-80
2023/06/14 14:27:53;;;;;;;;;;;;;;;;;;5010840;28;8557;-80
2023/06/14 14:30:23;;;;;;;;;;;;;;;;;;5011432;28;9207;-80
2023/06/14 14:32:49;;;;;;;;;;;;;;;;;;5001468;28;8963;-80
2023/06/14 14:35:16;;;;;;;;;;;;;;;;;;5004055;28;8522;-81
2023/06/14 14:37:42;;;;;;;;;;;;;;;;;;4992324;28;6944;-81
2023/06/14 14:40:09;;;;;;;;;;;;;;;;;;5010904;28;8843;-81
2023/06/14 14:42:34;;;;;;;;;;;;;;;;;;5011128;28;8554;-80
2023/06/14 14:45:00;;;;;;;;;;;;;;;;;;5010771;28;8585;-80
2023/06/14 14:47:26;;;;;;;;;;;;;;;;;;5011295;28;8817;-80
2023/06/14 14:49:51;;;;;;;;;;;;;;;;;;5010900;28;9089;-81
2023/06/14 14:52:17;;;;;;;;;;;;;;;;;;5010676;28;8596;-80
2023/06/14 14:54:43;;;;;;;;;;;;;;;;;;5010627;28;9011;-81
2023/06/14 14:57:08;;;;;;;;;;;;;;;;;;5010976;28;8830;-80
2023/06/14 14:59:34;;;;;;;;;;;;;;;;;;5010626;28;8604;-80
2023/06/14 15:02:00;;;;;;;;;;;;;;;;;;5010769;28;8624;-80
2023/06/14 15:04:25;;;;;;;;;;;;;;;;;;5011005;28;8880;-80
2023/06/14 15:06:51;;;;;;;;;;;;;;;;;;5010733;28;8501;-81
2023/06/14 15:09:17;;;;;;;;;;;;;;;;;;5010608;28;7152;-81
2023/06/14 15:11:44;;;;;;;;;;;;;;;;;;5010410;28;8491;-81
2023/06/14 15:14:09;;;;;;;;;;;;;;;;;;5010666;28;8816;-81
2023/06/14 15:16:35;;;;;;;;;;;;;;;;;;5010838;28;6934;-80
2023/06/14 15:19:01;;;;;;;;;;;;;;;;;;5009904;28;8897;-81
2023/06/14 15:21:26;;;;;;;;;;;;;;;;;;5010514;28;8475;-80
2023/06/14 15:23:53;;;;;;;;;;;;;;;;;;5011011;28;8457;-80
2023/06/14 15:26:19;;;;;;;;;;;;;;;;;;5010677;28;9336;-81
2023/06/14 15:28:44;;;;;;;;;;;;;;;;;;5009920;28;8736;-81
2023/06/14 15:31:10;;;;;;;;;;;;;;;;;;5009880;28;7217;-81
2023/06/14 15:33:35;;;;;;;;;;;;;;;;;;5009408;28;9668;-82
2023/06/14 15:36:01;;;;;;;;;;;;;;;;;;4999003;28;8788;-82
2023/06/14 15:38:27;;;;;;;;;;;;;;;;;;5001799;28;7351;-82
2023/06/14 15:40:52;;;;;;;;;;;;;;;;;;5010141;28;8541;-82
2023/06/14 15:43:17;;;;;;;;;;;;;;;;;;5009485;28;7125;-82
2023/06/14 15:45:44;;;;;;;;;;;;;;;;;;5010086;28;8566;-81
2023/06/14 15:48:10;;;;;;;;;;;;;;;;;;5009952;28;8538;-82
2023/06/14 15:50:36;;;;;;;;;;;;;;;;;;5009860;28;8466;-81
2023/06/14 15:53:02;;;;;;;;;;;;;;;;;;5009895;28;8503;-82
2023/06/14 15:55:27;;;;;;;;;;;;;;;;;;5009569;28;8525;-82
2023/06/14 15:57:53;;;;;;;;;;;;;;;;;;5009781;28;8612;-82
2023/06/14 16:00:19;;;;;;;;;;;;;;;;;;4995551;28;9532;-82
2023/06/14 16:02:45;;;;;;;;;;;;;;;;;;5009682;28;8593;-82
2023/06/14 16:05:11;;;;;;;;;;;;;;;;;;5009843;28;8674;-82
2023/06/14 16:07:37;;;;;;;;;;;;;;;;;;5009461;28;8756;-82
2023/06/14 16:10:02;;;;;;;;;;;;;;;;;;5009335;28;8547;-82
2023/06/14 16:12:28;;;;;;;;;;;;;;;;;;5009344;28;8489;-83
2023/06/14 16:14:54;;;;;;;;;;;;;;;;;;5003080;28;8572;-82
2023/06/14 16:17:20;;;;;;;;;;;;;;;;;;4973754;28;9004;-82
2023/06/14 16:19:45;;;;;;;;;;;;;;;;;;4986244;28;7452;-82
2023/06/14 16:22:11;;;;;;;;;;;;;;;;;;5009144;28;9065;-82
2023/06/14 16:24:36;;;;;;;;;;;;;;;;;;5009503;28;8538;-82
2023/06/14 16:27:04;;;;;;;;;;;;;;;;;;5009240;28;8710;-82
2023/06/14 16:29:29;;;;;;;;;;;;;;;;;;5001100;28;8613;-82
2023/06/14 16:31:55;;;;;;;;;;;;;;;;;;5009456;28;8807;-84
2023/06/14 16:34:20;;;;;;;;;;;;;;;;;;5008597;28;8848;-81
2023/06/14 16:36:46;;;;;;;;;;;;;;;;;;5009390;28;8928;-83
2023/06/14 16:39:12;;;;;;;;;;;;;;;;;;5008990;28;8554;-82
2023/06/14 16:41:37;;;;;;;;;;;;;;;;;;5009180;28;8514;-82
2023/06/14 16:44:04;;;;;;;;;;;;;;;;;;5001128;28;8823;-82
2023/06/14 16:46:34;;;;;;;;;;;;;;;;;;4989547;28;8939;-85
2023/06/14 16:49:00;;;;;;;;;;;;;;;;;;4978322;28;7316;-84
2023/06/14 16:51:26;;;;;;;;;;;;;;;;;;5008874;28;8533;-86
2023/06/14 16:53:51;;;;;;;;;;;;;;;;;;5008775;28;8546;-84
2023/06/14 16:56:20;;;;;;;;;;;;;;;;;;5009049;28;8526;-84
2023/06/14 16:58:46;;;;;;;;;;;;;;;;;;5005068;28;7572;-83